• Join FlightAware (Why Join?)
  • Login
  • US Flag 
Rudolph Flight #1: Arrived! 
11:45AM EST


 

Airport Tracker/Info


-or-


 

Live Flight TrackerFlight Track Log ✈ SWA2788 ✈ 08-Mar-2014 ✈ KTPA - KBUF

Flight Track Log - Related Links

Times and Time Zones

All times are in EST time to prevent confusion due to time zone crossing. See the SWA2788 flight status page for this flight to view local times or setup timezone preferences in your user account.

Time Position Orientation Groundspeed Altitude Reporting Facility
EST Latitude Longitude Course Direction KTS MPH feet Rate Location/Type
05:01PM 27.9500 -82.5333 204° Southwest 169 194 800  Level Tampa TRACON
05:02PM 27.8833 -82.5667 204° Southwest 237 273 3,500 2,160 Climbing Tampa TRACON
05:03PM 27.9000 -82.6167 291° West 250 288 5,600 2,940 Climbing Tampa TRACON
05:04PM 27.9667 -82.6167 360° North 279 321 8,800 3,300 Climbing Tampa TRACON
05:05PM 28.0500 -82.6167 360° North 291 335 11,900 1,860 Climbing Tampa TRACON
05:07PM 28.2164 -82.5958 North 308 354 14,800 1,740 Climbing Jacksonville Center
05:08PM 28.3039 -82.5883 North 308 354 17,500 2,400 Climbing Jacksonville Center
05:09PM 28.3958 -82.5833 North 315 362 19,700 2,340 Climbing Jacksonville Center
05:10PM 28.4958 -82.5856 359° North 336 387 22,200 2,400 Climbing Jacksonville Center
05:11PM 28.5983 -82.5875 359° North 349 402 24,500 2,160 Climbing Jacksonville Center
05:12PM 28.7006 -82.5919 358° North 354 407 26,600 1,740 Climbing Jacksonville Center
05:13PM 28.8028 -82.6083 352° North 365 420 28,000 840 Climbing Jacksonville Center
05:14PM 28.9114 -82.6197 355° North 375 432 28,300 900 Climbing Jacksonville Center
05:15PM 29.0242 -82.6361 353° North 392 451 29,800 1,560 Climbing Jacksonville Center
05:16PM 29.1389 -82.6547 352° North 398 458 31,500 1,200 Climbing Jacksonville Center
05:17PM 29.2497 -82.6711 353° North 404 465 32,300 960 Climbing Jacksonville Center
05:18PM 29.3561 -82.7092 343° North 404 465 33,500 840 Climbing Jacksonville Center
05:19PM 29.4689 -82.7447 345° North 409 471 34,000 600 Climbing Jacksonville Center
05:20PM 29.6089 -82.7469 359° North 434 499 34,700 900 Climbing Jacksonville Center
05:21PM 29.7383 -82.7372 North 452 520 35,800 1,080 Climbing Jacksonville Center
05:22PM 29.8614 -82.7272 North 455 524 36,900 1,080 Climbing Jacksonville Center
05:23PM 29.9908 -82.7200 North 463 533 38,000 840 Climbing Jacksonville Center
05:24PM 30.1097 -82.7100 North 458 527 38,600 480 Climbing Jacksonville Center
05:25PM 30.2392 -82.7025 North 458 527 39,000 180 Climbing Jacksonville Center
05:26PM 30.3708 -82.6950 North 458 527 39,000  Level Jacksonville Center
05:27PM 30.5022 -82.6853 North 458 527 39,000  Level Jacksonville Center
05:28PM 30.6506 -82.6631 North 464 534 39,000  Level Jacksonville Center
05:29PM 30.7819 -82.6436 North 470 541 39,000  Level Jacksonville Center
05:30PM 30.9156 -82.6189 North 476 548 39,000  Level Jacksonville Center
05:31PM 31.0469 -82.5967 North 481 554 39,000  Level Jacksonville Center
05:32PM 31.1556 -82.5769 North 481 554 39,000  Level Jacksonville Center
05:33PM 31.2997 -82.5547 North 481 554 39,000  Level Jacksonville Center
05:34PM 31.4372 -82.5250 10° North 487 560 39,000  Level Jacksonville Center
05:35PM 31.5708 -82.5000 North 487 560 39,000  Level Jacksonville Center
05:37PM 31.8139 -82.4675 North 476 548 39,000  Level Atlanta Center
05:38PM 31.9472 -82.4456 North 470 541 39,000  Level Atlanta Center
05:39PM 32.0761 -82.4236 North 470 541 39,000  Level Atlanta Center
05:40PM 32.2075 -82.4039 North 470 541 39,000  Level Atlanta Center
05:41PM 32.3450 -82.3819 North 465 535 39,000  Level Atlanta Center
05:42PM 32.4742 -82.3622 North 465 535 39,000  Level Atlanta Center
05:43PM 32.6031 -82.3400 North 465 535 39,000  Level Atlanta Center
05:44PM 32.7322 -82.3203 North 465 535 39,000  Level Atlanta Center
05:45PM 32.8572 -82.3006 North 460 529 39,000  Level Atlanta Center
05:46PM 32.9719 -82.2833 North 468 539 39,000  Level Atlanta Center
05:47PM 33.0967 -82.2608 North 462 532 39,000  Level Atlanta Center
05:48PM 33.2258 -82.2383 North 462 532 39,000  Level Atlanta Center
05:49PM 33.3528 -82.2183 North 462 532 39,000  Level Atlanta Center
05:50PM 33.4800 -82.1983 North 462 532 39,000  Level Atlanta Center
05:51PM 33.6069 -82.1756 North 462 532 39,000  Level Atlanta Center
05:52PM 33.7358 -82.1553 North 462 532 39,000  Level Atlanta Center
05:53PM 33.8608 -82.1350 North 457 526 39,000  Level Atlanta Center
05:54PM 33.9983 -82.1094 North 457 526 39,000  Level Atlanta Center
05:55PM 34.1253 -82.0889 North 452 520 39,000  Level Atlanta Center
05:56PM 34.2481 -82.0686 North 452 520 39,000  Level Atlanta Center
05:57PM 34.3728 -82.0456 North 452 520 39,000  Level Atlanta Center
05:58PM 34.4978 -82.0250 North 452 520 39,000  Level Atlanta Center
05:59PM 34.6247 -82.0017 North 452 520 39,000  Level Atlanta Center
06:00PM 34.7517 -81.9783 North 447 514 39,000  Level Atlanta Center
06:01PM 34.8764 -81.9550 North 447 514 39,000  Level Atlanta Center
06:02PM 35.0056 -81.9367 North 452 520 39,000  Level Atlanta Center
06:03PM 35.1347 -81.9283 North 458 527 39,000  Level Atlanta Center
06:04PM 35.2597 -81.9225 North 458 527 39,000  Level Atlanta Center
06:05PM 35.3911 -81.9142 North 458 527 39,000  Level Atlanta Center
06:06PM 35.5203 -81.9081 North 458 527 39,000  Level Atlanta Center
06:07PM 35.6475 -81.9022 North 458 527 39,000  Level Atlanta Center
06:08PM 35.7831 -81.8961 North 465 535 39,000  Level Atlanta Center
06:10PM 36.0567 -81.8794 North 460 529 39,000  Level Indianapolis Center
06:11PM 36.1814 -81.8736 North 454 522 39,000  Level Indianapolis Center
06:12PM 36.3067 -81.8686 North 453 521 39,000  Level Indianapolis Center
06:13PM 36.4322 -81.8622 North 453 521 39,000  Level Indianapolis Center
06:14PM 36.5569 -81.8558 North 452 520 39,000  Level Indianapolis Center
06:15PM 36.6806 -81.8314 North 454 522 39,000  Level Indianapolis Center
06:16PM 36.8056 -81.7839 17° North 466 536 39,000  Level Indianapolis Center
06:17PM 36.9514 -81.7300 16° North 467 537 39,000  Level Indianapolis Center
06:18PM 37.0753 -81.6839 17° North 467 537 39,000  Level Indianapolis Center
06:19PM 37.1997 -81.6378 16° North 467 537 39,000  Level Indianapolis Center
06:20PM 37.3244 -81.5911 17° North 467 537 39,000  Level Indianapolis Center
06:21PM 37.4483 -81.5439 17° North 467 537 39,000  Level Indianapolis Center
06:22PM 37.5703 -81.4978 17° North 467 537 39,000  Level Indianapolis Center
06:23PM 37.7214 -81.4414 16° North 478 550 39,000  Level Indianapolis Center
06:24PM 37.8422 -81.3956 17° North 478 550 39,000  Level Indianapolis Center
06:25PM 37.9697 -81.3478 16° North 478 550 39,000  Level Indianapolis Center
06:26PM 38.0967 -81.2981 17° North 478 550 39,000  Level Indianapolis Center
06:27PM 38.2214 -81.2525 16° North 475 547 39,000  Level Indianapolis Center
06:28PM 38.3467 -81.2033 17° North 474 545 39,000  Level Indianapolis Center
06:29PM 38.4961 -81.1450 17° North 474 545 39,000  Level Indianapolis Center
06:30PM 38.6200 -81.0958 17° North 473 544 39,000  Level Indianapolis Center
06:31PM 38.7425 -81.0486 17° North 469 540 39,000  Level Indianapolis Center
06:32PM 38.8644 -81.0003 17° North 467 537 39,000  Level Indianapolis Center
06:33PM 38.9850 -80.9536 17° North 460 529 39,000  Level Indianapolis Center
06:34PM 39.1053 -80.9047 18° North 459 528 39,000  Level Indianapolis Center
06:35PM 39.2511 -80.8497 16° North 458 527 39,000  Level Indianapolis Center
06:37PM 39.3708 -80.8017 17° North 455 524 39,000  Level Indianapolis Center
06:38PM 39.4928 -80.7542 17° North 455 524 39,000 -300 Level Indianapolis Center
06:39PM 39.6125 -80.7056 17° North 454 522 38,400 -840 Descending Indianapolis Center
06:40PM 39.7342 -80.6575 17° North 454 522 37,400 -720 Descending Indianapolis Center
06:41PM 39.8561 -80.6069 18° North 456 525 37,000 -240 Descending Indianapolis Center
06:42PM 39.9733 -80.5397 24° Northeast 467 537 37,000 -120 Level Indianapolis Center
06:43PM 40.1133 -80.4561 25° Northeast 469 540 36,800 -600 Descending Indianapolis Center
06:44PM 40.2322 -80.3856 24° Northeast 468 539 35,800 -1,020 Descending Indianapolis Center
06:45PM 40.3547 -80.3150 24° Northeast 471 542 34,800 -960 Descending Indianapolis Center
06:46PM 40.5003 -80.2308 24° Northeast 475 547 33,700 -960 Descending Cleveland Center
06:47PM 40.6189 -80.1600 24° Northeast 469 540 32,700 -1,020 Descending Cleveland Center
06:48PM 40.7364 -80.0897 24° Northeast 467 537 31,700 -1,080 Descending Cleveland Center
06:49PM 40.8728 -80.0086 24° Northeast 466 536 30,500 -1,080 Descending Cleveland Center
06:50PM 40.9747 -79.9492 24° Northeast 465 535 29,600 -960 Descending Cleveland Center
06:51PM 41.0883 -79.8792 25° Northeast 454 522 28,600 -1,140 Descending Cleveland Center
06:52PM 41.2214 -79.7994 24° Northeast 452 520 27,400 -1,080 Descending Cleveland Center
06:53PM 41.3333 -79.7308 25° Northeast 447 514 26,400 -1,020 Descending Cleveland Center
06:54PM 41.4444 -79.6636 24° Northeast 443 510 25,400 -1,020 Descending Cleveland Center
06:55PM 41.5539 -79.5972 24° Northeast 436 502 24,400 -720 Descending Cleveland Center
06:56PM 41.6611 -79.5319 24° Northeast 429 494 24,000 -240 Descending Cleveland Center
06:57PM 41.7661 -79.4678 25° Northeast 419 482 24,000 -120 Level Cleveland Center
06:58PM 41.8717 -79.4022 25° Northeast 419 482 23,800 -1,320 Descending Cleveland Center
06:59PM 41.9969 -79.3258 24° Northeast 415 478 21,400 -2,220 Descending Cleveland Center
07:00PM 42.0975 -79.2631 25° Northeast 401 461 19,300 -1,980 Descending Cleveland Center
07:01PM 42.1967 -79.2022 24° Northeast 397 457 17,400 -2,040 Descending Cleveland Center
07:02PM 42.2936 -79.1403 25° Northeast 392 451 15,200 -2,100 Descending Cleveland Center
07:03PM 42.3869 -79.0825 25° Northeast 373 429 13,100 -2,040 Descending Cleveland Center
07:04PM 42.4708 -79.0053 34° Northeast 373 429 11,100 -1,080 Descending Cleveland Center
07:05PM 42.5508 -78.9258 36° Northeast 360 414 11,000 -300 Descending Cleveland Center
07:06PM 42.6242 -78.8539 36° Northeast 332 382 10,600 -1,020 Descending Cleveland Center
07:07PM 42.6997 -78.7783 36° Northeast 296 341 9,000 -1,560 Descending Cleveland Center
07:08PM 42.7603 -78.7203 35° Northeast 283 326 7,500 -1,440 Descending Cleveland Center
07:09PM 42.8250 -78.6611 34° Northeast 272 313 6,100 -900 Descending Cleveland Center
07:10PM 42.8836 -78.6083 33° Northeast 247 284 5,700 -960 Descending Cleveland Center
07:12PM 42.9344 -78.5664 31° Northeast 229 264 4,200 -1,440 Descending Cleveland Center
07:13PM 42.9903 -78.5289 26° Northeast 225 259 2,800 -840 Descending Cleveland Center
07:14PM 43.0100 -78.5917 293° West 181 208 2,500 -300 Descending Cleveland Center
07:14PM 43.0000 -78.6500 257° West 161 185 2,300 -540 Descending Buffalo TRACON
07:15PM 42.9667 -78.6833 216° Southwest 152 175 1,500 -840 Descending Buffalo TRACON